createdAt,value
2018-04-07T00:00:58.291Z,16.20
2018-04-07T00:03:25.784Z,17.00
2018-04-07T00:05:53.275Z,14.47
2018-04-07T00:08:20.792Z,16.50
2018-04-07T00:10:48.281Z,15.60
2018-04-07T00:13:15.762Z,17.37
2018-04-07T00:15:43.285Z,14.10
2018-04-07T00:18:10.778Z,17.57
2018-04-07T00:20:38.263Z,14.33
2018-04-07T00:23:05.787Z,15.33
2018-04-07T00:25:33.270Z,13.23
2018-04-07T00:28:00.759Z,15.83
2018-04-07T00:30:28.266Z,15.00
2018-04-07T00:32:55.750Z,16.50
2018-04-07T00:35:23.234Z,17.17
2018-04-07T00:37:50.742Z,12.93
2018-04-07T00:40:18.238Z,14.83
2018-04-07T00:42:45.742Z,16.63
2018-04-07T00:45:13.254Z,17.23
2018-04-07T00:47:40.747Z,16.67
2018-04-07T00:50:08.234Z,16.10
2018-04-07T00:52:47.570Z,18.67
2018-04-07T00:55:15.063Z,15.17
2018-04-07T00:57:42.565Z,18.73
2018-04-07T01:00:10.074Z,18.67
2018-04-07T01:02:37.574Z,18.03
2018-04-07T01:05:05.064Z,14.77
2018-04-07T01:07:33.571Z,15.53
2018-04-07T01:10:01.062Z,15.60
2018-04-07T01:12:28.546Z,17.60
2018-04-07T01:14:56.064Z,17.47
2018-04-07T01:17:23.551Z,16.00
2018-04-07T01:19:51.037Z,16.57
2018-04-07T01:22:18.556Z,23.60
2018-04-07T01:24:46.033Z,13.63
2018-04-07T01:27:13.523Z,16.37
2018-04-07T01:29:41.038Z,15.37
2018-04-07T01:32:08.523Z,14.90
2018-04-07T01:34:36.028Z,22.63
2018-04-07T01:37:03.533Z,17.73
2018-04-07T01:39:31.022Z,16.90
2018-04-07T01:41:58.514Z,16.33
2018-04-07T01:44:26.025Z,18.70
2018-04-07T01:46:53.514Z,18.57
2018-04-07T01:49:20.999Z,19.03
2018-04-07T01:51:48.517Z,17.40
2018-04-07T01:54:16.006Z,20.40
2018-04-07T01:56:43.495Z,21.33
2018-04-07T01:59:11.029Z,17.23
2018-04-07T02:01:38.521Z,17.37
2018-04-07T02:04:06.008Z,18.47
2018-04-07T02:06:33.518Z,16.77
2018-04-07T02:09:01.001Z,24.00
2018-04-07T02:11:28.482Z,19.50
2018-04-07T02:13:55.990Z,18.63
2018-04-07T02:16:23.473Z,16.57
2018-04-07T02:18:50.966Z,21.93
2018-04-07T02:21:18.483Z,16.80
2018-04-07T02:23:45.975Z,16.53
2018-04-07T02:26:13.533Z,19.70
2018-04-07T02:28:41.054Z,17.50
2018-04-07T02:31:08.539Z,19.37
2018-04-07T02:33:36.036Z,19.37
2018-04-07T02:36:03.613Z,16.97
2018-04-07T02:38:31.098Z,20.93
2018-04-07T02:40:58.587Z,16.90
2018-04-07T02:43:26.096Z,23.50
2018-04-07T02:45:53.614Z,20.23
2018-04-07T02:48:21.120Z,20.60
2018-04-07T02:50:48.635Z,18.67
2018-04-07T02:53:16.118Z,21.50
2018-04-07T02:55:43.611Z,20.10
2018-04-07T02:58:11.132Z,16.73
2018-04-07T03:00:38.623Z,18.10
2018-04-07T03:03:06.111Z,19.93
2018-04-07T03:05:33.618Z,16.87
2018-04-07T03:08:01.107Z,21.20
2018-04-07T03:10:28.598Z,19.83
2018-04-07T03:12:56.107Z,18.77
2018-04-07T03:15:23.602Z,19.67
2018-04-07T03:17:51.082Z,16.57
2018-04-07T03:20:18.598Z,22.37
2018-04-07T03:22:46.091Z,20.47
2018-04-07T03:25:13.583Z,17.47
2018-04-07T03:27:41.092Z,18.10
2018-04-07T03:30:08.583Z,18.73
2018-04-07T03:32:36.075Z,15.83
2018-04-07T03:35:03.597Z,18.90
2018-04-07T03:37:31.088Z,15.67
2018-04-07T03:39:58.580Z,16.80
2018-04-07T03:42:26.093Z,14.70
2018-04-07T03:44:53.578Z,16.90
2018-04-07T03:47:21.063Z,15.70
2018-04-07T03:49:48.583Z,16.90
2018-04-07T03:52:16.066Z,17.10
2018-04-07T03:54:43.550Z,16.53
2018-04-07T03:57:11.053Z,15.23
2018-04-07T03:59:38.556Z,14.53
2018-04-07T04:02:06.046Z,18.27
2018-04-07T04:04:33.563Z,14.77
2018-04-07T04:07:01.046Z,12.77
2018-04-07T04:09:28.535Z,13.53
2018-04-07T04:11:56.058Z,15.03
2018-04-07T04:14:23.544Z,14.97
2018-04-07T04:16:51.026Z,18.10
2018-04-07T04:19:19.139Z,20.83
2018-04-07T04:21:46.627Z,15.93
2018-04-07T04:24:14.131Z,15.30
2018-04-07T04:26:41.641Z,13.83
2018-04-07T04:29:09.137Z,17.30
2018-04-07T04:31:36.623Z,15.97
2018-04-07T04:34:05.098Z,16.97
2018-04-07T04:36:32.587Z,16.37
2018-04-07T04:39:00.071Z,13.23
2018-04-07T04:41:27.586Z,17.10
2018-04-07T04:43:55.074Z,13.70
2018-04-07T04:46:22.553Z,13.57
2018-04-07T04:48:50.062Z,14.90
2018-04-07T04:51:17.547Z,16.97
2018-04-07T04:53:45.043Z,14.40
2018-04-07T04:56:12.563Z,15.07
2018-04-07T04:58:40.042Z,13.07
2018-04-07T05:01:07.529Z,16.93
2018-04-07T05:03:35.051Z,15.23
2018-04-07T05:06:02.535Z,12.67
2018-04-07T05:08:30.027Z,14.73
2018-04-07T05:10:57.538Z,21.90
2018-04-07T05:13:25.036Z,14.03
2018-04-07T05:15:52.617Z,13.00
2018-04-07T05:18:21.086Z,13.60
2018-04-07T05:20:48.579Z,21.20
2018-04-07T05:23:16.067Z,14.80
2018-04-07T05:25:43.595Z,13.27
2018-04-07T05:28:11.099Z,13.40
2018-04-07T05:30:38.583Z,14.13
2018-04-07T05:33:06.091Z,13.87
2018-04-07T05:35:33.578Z,12.63
2018-04-07T05:38:01.061Z,13.30
2018-04-07T05:40:28.578Z,12.80
2018-04-07T05:42:56.061Z,11.90
2018-04-07T05:45:23.545Z,12.67
2018-04-07T05:47:51.055Z,13.70
2018-04-07T05:50:18.533Z,13.97
2018-04-07T05:52:46.029Z,12.40
2018-04-07T05:55:13.539Z,11.00
2018-04-07T05:57:41.023Z,11.97
2018-04-07T06:00:08.619Z,10.20
2018-04-07T06:02:36.302Z,13.80
2018-04-07T06:05:03.777Z,16.17
2018-04-07T06:07:31.258Z,11.17
2018-04-07T06:09:58.762Z,12.20
2018-04-07T06:12:26.241Z,10.27
2018-04-07T06:14:53.725Z,11.33
2018-04-07T06:17:21.238Z,11.33
2018-04-07T06:19:48.723Z,8.43
2018-04-07T06:22:16.202Z,9.73
2018-04-07T06:24:43.697Z,9.93
2018-04-07T06:27:11.178Z,10.47
2018-04-07T06:29:38.658Z,11.00
2018-04-07T06:32:06.153Z,9.17
2018-04-07T06:34:35.455Z,9.57
2018-04-07T06:37:02.940Z,10.23
2018-04-07T06:39:30.447Z,10.63
2018-04-07T06:41:57.974Z,9.20
2018-04-07T06:44:25.447Z,11.53
2018-04-07T06:46:53.140Z,11.97
2018-04-07T06:49:20.760Z,9.53
2018-04-07T06:51:48.394Z,11.80
2018-04-07T06:54:15.902Z,8.50
2018-04-07T06:56:43.382Z,9.23
2018-04-07T06:59:10.866Z,9.20
2018-04-07T07:01:38.369Z,8.00
2018-04-07T07:04:05.846Z,8.20
2018-04-07T07:06:33.335Z,9.20
2018-04-07T07:09:00.855Z,11.47
2018-04-07T07:11:28.350Z,10.60
2018-04-07T07:13:55.851Z,8.43
2018-04-07T07:16:23.389Z,10.77
2018-04-07T07:18:50.887Z,10.43
2018-04-07T07:21:18.379Z,7.47
2018-04-07T07:23:45.891Z,8.97
2018-04-07T07:26:13.374Z,13.10
2018-04-07T07:28:40.856Z,9.73
2018-04-07T07:31:08.369Z,7.73
2018-04-07T07:33:35.854Z,14.30
2018-04-07T07:36:03.338Z,8.80
2018-04-07T07:38:30.847Z,9.10
2018-04-07T07:40:58.328Z,8.47
2018-04-07T07:43:26.739Z,10.90
2018-04-07T07:45:54.272Z,7.03
2018-04-07T07:48:21.754Z,8.87
2018-04-07T07:50:50.391Z,7.73
2018-04-07T07:53:17.968Z,8.57
2018-04-07T07:55:45.449Z,7.90
2018-04-07T07:58:12.922Z,9.17
2018-04-07T08:00:40.431Z,9.17
2018-04-07T08:03:07.928Z,9.37
2018-04-07T08:05:35.415Z,8.43
2018-04-07T08:08:02.923Z,9.33
2018-04-07T08:10:30.412Z,7.80
2018-04-07T08:12:57.899Z,9.33
2018-04-07T08:15:25.427Z,10.20
2018-04-07T08:17:52.901Z,6.53
2018-04-07T08:20:20.388Z,7.97
2018-04-07T08:22:47.898Z,8.73
2018-04-07T08:25:15.388Z,13.93
2018-04-07T08:27:42.875Z,8.33
2018-04-07T08:30:10.393Z,11.33
2018-04-07T08:32:37.866Z,8.97
2018-04-07T08:35:05.346Z,7.73
2018-04-07T08:37:33.852Z,10.93
2018-04-07T08:40:01.338Z,10.67
2018-04-07T08:42:28.809Z,8.40
2018-04-07T08:44:56.310Z,7.37
2018-04-07T08:47:23.799Z,8.17
2018-04-07T08:49:51.283Z,8.83
2018-04-07T08:52:18.794Z,8.57
2018-04-07T08:54:46.282Z,8.83
2018-04-07T08:57:13.786Z,5.87
2018-04-07T08:59:41.302Z,8.17
2018-04-07T09:02:08.777Z,9.50
2018-04-07T09:04:36.258Z,13.30
2018-04-07T09:07:03.796Z,9.17
2018-04-07T09:09:32.176Z,7.27
2018-04-07T09:11:59.674Z,6.77
2018-04-07T09:14:27.238Z,8.07
2018-04-07T09:16:55.735Z,10.47
2018-04-07T09:19:23.250Z,8.60
2018-04-07T09:21:50.735Z,8.27
2018-04-07T09:24:18.218Z,7.13
2018-04-07T09:26:45.703Z,7.70
2018-04-07T09:29:13.208Z,8.67
2018-04-07T09:31:40.696Z,8.17
2018-04-07T09:34:08.248Z,10.30
2018-04-07T09:36:35.768Z,7.27
2018-04-07T09:39:03.269Z,6.13
2018-04-07T09:41:30.754Z,9.77
2018-04-07T09:43:58.268Z,7.47
2018-04-07T09:46:25.758Z,7.43
2018-04-07T09:48:53.312Z,11.73
2018-04-07T09:51:20.828Z,8.43
2018-04-07T09:53:48.306Z,8.23
2018-04-07T09:56:15.794Z,9.10
2018-04-07T09:58:43.322Z,7.67
2018-04-07T10:01:10.830Z,8.03
2018-04-07T10:03:38.344Z,7.33
2018-04-07T10:06:05.860Z,9.33
2018-04-07T10:08:33.352Z,9.17
2018-04-07T10:11:00.845Z,9.53
2018-04-07T10:13:28.367Z,8.37
2018-04-07T10:15:55.850Z,10.33
2018-04-07T10:18:23.346Z,9.67
2018-04-07T10:20:50.887Z,6.10
2018-04-07T10:23:18.452Z,9.93
2018-04-07T10:25:45.943Z,10.07
2018-04-07T10:28:13.469Z,6.77
2018-04-07T10:30:40.958Z,7.30
2018-04-07T10:33:08.443Z,7.67
2018-04-07T10:35:35.954Z,10.10
2018-04-07T10:38:03.439Z,10.03
2018-04-07T10:40:30.931Z,9.17
2018-04-07T10:42:58.450Z,8.57
2018-04-07T10:45:25.939Z,6.90
2018-04-07T10:47:53.437Z,10.10
2018-04-07T10:50:20.950Z,9.77
2018-04-07T10:52:48.464Z,10.67
2018-04-07T10:55:15.975Z,7.77
2018-04-07T10:57:43.498Z,8.30
2018-04-07T11:00:11.006Z,13.43
2018-04-07T11:02:38.547Z,7.77
2018-04-07T11:05:06.062Z,11.93
2018-04-07T11:07:33.560Z,11.23
2018-04-07T11:10:01.071Z,10.70
2018-04-07T11:12:28.610Z,10.00
2018-04-07T11:14:56.100Z,7.90
2018-04-07T11:17:23.613Z,8.07
2018-04-07T11:19:51.139Z,10.47
2018-04-07T11:22:18.628Z,7.97
2018-04-07T11:24:46.441Z,10.27
2018-04-07T11:27:13.946Z,7.13
2018-04-07T11:29:41.459Z,11.83
2018-04-07T11:32:08.952Z,10.73
2018-04-07T11:34:36.475Z,6.30
2018-04-07T11:37:03.963Z,7.47
2018-04-07T11:39:31.454Z,7.93
2018-04-07T11:41:58.967Z,8.00
2018-04-07T11:44:26.448Z,9.47
2018-04-07T11:46:53.944Z,10.03
2018-04-07T11:49:21.454Z,8.70
2018-04-07T11:51:48.975Z,8.33
2018-04-07T11:54:16.481Z,14.50
2018-04-07T11:56:43.999Z,8.87
2018-04-07T11:59:11.491Z,10.97
2018-04-07T12:01:39.559Z,10.97
2018-04-07T12:04:07.076Z,11.97
2018-04-07T12:06:34.574Z,8.00
2018-04-07T12:09:02.079Z,7.80
2018-04-07T12:11:29.596Z,9.43
2018-04-07T12:13:57.090Z,7.60
2018-04-07T12:16:24.620Z,7.67
2018-04-07T12:18:52.179Z,12.93
2018-04-07T12:21:19.680Z,10.07
2018-04-07T12:23:47.179Z,10.10
2018-04-07T12:26:14.698Z,11.57
2018-04-07T12:28:42.186Z,8.93
2018-04-07T12:31:09.684Z,11.43
2018-04-07T12:33:37.203Z,9.47
2018-04-07T12:36:04.716Z,9.63
2018-04-07T12:38:32.202Z,11.43
2018-04-07T12:40:59.718Z,11.73
2018-04-07T12:43:27.213Z,9.43
2018-04-07T12:45:54.703Z,10.37
2018-04-07T12:48:22.214Z,9.43
2018-04-07T12:50:49.706Z,11.03
2018-04-07T12:53:17.208Z,10.70
2018-04-07T12:55:45.710Z,10.43
2018-04-07T12:58:13.198Z,9.27
2018-04-07T13:00:40.687Z,9.33
2018-04-07T13:03:08.202Z,10.07
2018-04-07T13:05:35.686Z,8.30
2018-04-07T13:08:03.178Z,10.63
2018-04-07T13:10:30.699Z,9.37
2018-04-07T13:12:58.195Z,10.50
2018-04-07T13:15:25.682Z,11.80
2018-04-07T13:17:53.271Z,8.87
2018-04-07T13:20:20.760Z,8.83
2018-04-07T13:22:48.246Z,13.37
2018-04-07T13:25:15.766Z,11.03
2018-04-07T13:27:43.252Z,8.30
2018-04-07T13:30:10.754Z,9.53
2018-04-07T13:32:38.267Z,9.03
2018-04-07T13:35:05.766Z,12.57
2018-04-07T13:37:33.254Z,9.40
2018-04-07T13:40:00.779Z,10.10
2018-04-07T13:42:28.258Z,7.50
2018-04-07T13:44:55.742Z,11.77
2018-04-07T13:47:23.258Z,11.07
2018-04-07T13:49:50.749Z,14.20
2018-04-07T13:52:18.243Z,11.23
2018-04-07T13:54:45.756Z,12.27
2018-04-07T13:57:13.246Z,11.07
2018-04-07T13:59:40.727Z,9.77
2018-04-07T14:02:08.243Z,10.97
2018-04-07T14:04:35.730Z,7.67
2018-04-07T14:07:04.125Z,15.40
2018-04-07T14:09:31.642Z,9.20
2018-04-07T14:11:59.131Z,10.07
2018-04-07T14:14:26.635Z,8.53
2018-04-07T14:16:54.145Z,9.93
2018-04-07T14:19:21.643Z,11.80
2018-04-07T14:21:49.136Z,8.67
2018-04-07T14:24:16.647Z,9.00
2018-04-07T14:26:44.139Z,8.23
2018-04-07T14:29:11.626Z,7.50
2018-04-07T14:31:39.138Z,6.90
2018-04-07T14:34:06.631Z,10.83
2018-04-07T14:36:34.116Z,7.47
2018-04-07T14:39:01.642Z,8.53
2018-04-07T14:41:29.123Z,8.30
2018-04-07T14:43:56.612Z,9.50
2018-04-07T14:46:24.116Z,7.10
2018-04-07T14:48:51.604Z,8.73
2018-04-07T14:51:19.091Z,7.13
2018-04-07T14:53:46.597Z,7.33
2018-04-07T14:56:14.083Z,8.43
2018-04-07T14:58:41.565Z,8.03
2018-04-07T15:01:09.108Z,7.70
2018-04-07T15:03:36.615Z,7.37
2018-04-07T15:06:04.099Z,7.63
2018-04-07T15:08:31.607Z,8.60
2018-04-07T15:10:59.093Z,8.63
2018-04-07T15:13:26.618Z,7.87
2018-04-07T15:15:54.902Z,9.13
2018-04-07T15:18:22.382Z,9.27
2018-04-07T15:20:49.866Z,13.10
2018-04-07T15:23:17.393Z,8.07
2018-04-07T15:25:44.874Z,9.20
2018-04-07T15:28:12.357Z,11.80
2018-04-07T15:30:39.895Z,10.20
2018-04-07T15:33:07.380Z,10.10
2018-04-07T15:35:34.859Z,9.67
2018-04-07T15:38:02.370Z,6.47
2018-04-07T15:40:29.860Z,8.50
2018-04-07T15:42:57.341Z,11.17
2018-04-07T15:45:24.850Z,6.47
2018-04-07T15:47:52.343Z,9.60
2018-04-07T15:50:19.830Z,25.83
2018-04-07T15:52:47.337Z,10.23
2018-04-07T15:55:14.826Z,11.47
2018-04-07T15:57:42.318Z,10.87
2018-04-07T16:00:09.828Z,9.23
2018-04-07T16:02:37.313Z,10.00
2018-04-07T16:05:04.794Z,8.40
2018-04-07T16:07:32.312Z,6.17
2018-04-07T16:09:59.800Z,6.00
2018-04-07T16:12:27.290Z,6.80
2018-04-07T16:14:54.799Z,13.63
2018-04-07T16:17:22.296Z,8.53
2018-04-07T16:19:49.782Z,9.40
2018-04-07T16:22:17.287Z,6.93
2018-04-07T16:24:44.770Z,5.47
2018-04-07T16:27:12.254Z,6.53
2018-04-07T16:29:39.763Z,4.67
2018-04-07T16:32:07.251Z,9.57
2018-04-07T16:34:34.733Z,10.93
2018-04-07T16:37:02.252Z,7.33
2018-04-07T16:39:29.734Z,6.43
2018-04-07T16:41:57.209Z,5.40
2018-04-07T16:44:24.714Z,40.10
2018-04-07T16:46:52.207Z,6.40
2018-04-07T16:49:19.686Z,8.23
2018-04-07T16:51:47.195Z,4.73
2018-04-07T16:54:14.708Z,7.33
2018-04-07T16:56:42.206Z,7.47
2018-04-07T16:59:09.719Z,8.73
2018-04-07T17:01:37.205Z,12.30
2018-04-07T17:04:04.692Z,5.93
2018-04-07T17:06:32.195Z,7.70
2018-04-07T17:08:59.683Z,8.20
2018-04-07T17:11:27.163Z,5.40
2018-04-07T17:13:54.671Z,7.23
2018-04-07T17:16:22.153Z,6.93
2018-04-07T17:18:50.626Z,7.23
2018-04-07T17:21:18.134Z,6.77
2018-04-07T17:23:45.623Z,6.57
2018-04-07T17:26:13.121Z,5.00
2018-04-07T17:28:40.631Z,6.33
2018-04-07T17:31:08.119Z,5.73
2018-04-07T17:33:35.610Z,7.23
2018-04-07T17:36:03.122Z,8.63
2018-04-07T17:38:30.615Z,11.13
2018-04-07T17:40:58.106Z,6.90
2018-04-07T17:43:25.611Z,7.53
2018-04-07T17:45:53.095Z,6.57
2018-04-07T17:48:20.712Z,10.07
2018-04-07T17:50:48.284Z,7.10
2018-04-07T17:53:15.778Z,7.40
2018-04-07T17:55:43.267Z,6.60
2018-04-07T17:58:10.774Z,10.50
2018-04-07T18:00:38.250Z,8.93
2018-04-07T18:03:05.731Z,7.40
2018-04-07T18:05:33.241Z,6.53
2018-04-07T18:08:00.713Z,8.40
2018-04-07T18:10:28.203Z,5.93
2018-04-07T18:12:55.731Z,6.93
2018-04-07T18:15:23.210Z,7.73
2018-04-07T18:17:50.844Z,5.97
2018-04-07T18:20:18.542Z,8.10
2018-04-07T18:22:46.183Z,9.60
2018-04-07T18:25:13.829Z,5.97
2018-04-07T18:27:41.507Z,7.73
2018-04-07T18:30:09.129Z,6.73
2018-04-07T18:32:36.820Z,9.57
2018-04-07T18:35:04.497Z,9.80
2018-04-07T18:37:32.190Z,6.53
2018-04-07T18:39:59.822Z,6.73
2018-04-07T18:42:27.514Z,9.47
2018-04-07T18:44:55.175Z,7.73
2018-04-07T18:47:22.836Z,11.97
2018-04-07T18:49:50.414Z,9.73
2018-04-07T18:52:17.909Z,10.17
2018-04-07T18:54:45.518Z,7.37
2018-04-07T18:57:13.026Z,8.93
2018-04-07T18:59:40.507Z,8.63
2018-04-07T19:02:08.016Z,6.23
2018-04-07T19:04:35.532Z,8.13
2018-04-07T19:07:03.030Z,6.37
2018-04-07T19:09:30.804Z,7.50
2018-04-07T19:11:58.578Z,9.87
2018-04-07T19:14:28.359Z,10.13
2018-04-07T19:16:55.834Z,8.17
2018-04-07T19:19:23.339Z,8.60
2018-04-07T19:21:50.822Z,10.83
2018-04-07T19:24:18.323Z,8.77
2018-04-07T19:26:45.830Z,9.47
2018-04-07T19:29:13.314Z,8.33
2018-04-07T19:31:40.809Z,10.57
2018-04-07T19:34:08.323Z,10.23
2018-04-07T19:36:35.812Z,8.23
2018-04-07T19:39:03.302Z,12.10
2018-04-07T19:41:30.824Z,8.23
2018-04-07T19:43:58.315Z,9.07
2018-04-07T19:46:25.826Z,9.47
2018-04-07T19:48:53.346Z,7.30
2018-04-07T19:51:20.830Z,12.97
2018-04-07T19:53:48.308Z,9.70
2018-04-07T19:56:15.822Z,12.97
2018-04-07T19:58:43.318Z,33.87
2018-04-07T20:01:10.807Z,24.20
2018-04-07T20:03:38.319Z,20.33
2018-04-07T20:06:06.763Z,18.40
2018-04-07T20:08:34.249Z,29.60
2018-04-07T20:11:01.763Z,18.23
2018-04-07T20:13:29.269Z,8.50
2018-04-07T20:15:56.778Z,10.63
2018-04-07T20:18:24.277Z,12.77
2018-04-07T20:20:51.753Z,11.27
2018-04-07T20:23:19.239Z,9.60
2018-04-07T20:25:46.742Z,11.30
2018-04-07T20:28:14.254Z,13.33
2018-04-07T20:30:41.730Z,9.77
2018-04-07T20:33:09.291Z,10.57
2018-04-07T20:35:36.806Z,8.73
2018-04-07T20:38:04.298Z,7.67
2018-04-07T20:40:31.844Z,11.83
2018-04-07T20:42:59.326Z,9.30
2018-04-07T20:45:26.809Z,11.80
2018-04-07T20:47:54.319Z,12.03
2018-04-07T20:50:21.826Z,10.10
2018-04-07T20:52:49.313Z,11.40
2018-04-07T20:55:16.871Z,7.03
2018-04-07T20:57:44.335Z,7.30
2018-04-07T21:00:11.842Z,9.87
2018-04-07T21:02:39.362Z,12.70
2018-04-07T21:05:06.846Z,9.00
2018-04-07T21:07:34.327Z,6.67
2018-04-07T21:10:01.839Z,11.57
2018-04-07T21:12:29.324Z,9.07
2018-04-07T21:14:56.807Z,7.83
2018-04-07T21:17:24.370Z,10.50
2018-04-07T21:19:51.836Z,8.70
2018-04-07T21:22:19.342Z,11.40
2018-04-07T21:24:46.859Z,11.33
2018-04-07T21:27:14.343Z,7.20
2018-04-07T21:29:41.827Z,8.80
2018-04-07T21:32:09.341Z,9.30
2018-04-07T21:34:36.821Z,7.33
2018-04-07T21:37:04.315Z,18.67
2018-04-07T21:39:31.827Z,7.90
2018-04-07T21:41:59.297Z,8.77
2018-04-07T21:44:26.874Z,9.13
2018-04-07T21:46:54.387Z,11.10
2018-04-07T21:49:21.870Z,7.37
2018-04-07T21:51:49.353Z,9.43
2018-04-07T21:54:16.862Z,7.03
2018-04-07T21:56:44.341Z,9.30
2018-04-07T21:59:11.830Z,9.43
2018-04-07T22:01:39.371Z,7.17
2018-04-07T22:04:07.738Z,8.97
2018-04-07T22:06:35.228Z,8.47
2018-04-07T22:09:02.738Z,6.73
2018-04-07T22:11:30.222Z,8.10
2018-04-07T22:13:57.702Z,7.83
2018-04-07T22:16:25.214Z,11.17
2018-04-07T22:18:52.703Z,8.93
2018-04-07T22:21:20.195Z,8.37
2018-04-07T22:23:47.706Z,10.60
2018-04-07T22:26:15.187Z,9.93
2018-04-07T22:28:42.679Z,7.60
2018-04-07T22:31:10.177Z,8.13
2018-04-07T22:33:37.663Z,9.33
2018-04-07T22:36:05.176Z,10.63
2018-04-07T22:38:32.695Z,9.03
2018-04-07T22:41:00.184Z,12.37
2018-04-07T22:43:27.675Z,10.10
2018-04-07T22:45:55.294Z,14.30
2018-04-07T22:48:22.782Z,12.43
2018-04-07T22:50:50.262Z,9.50
2018-04-07T22:53:17.770Z,13.23
2018-04-07T22:55:45.253Z,11.10
2018-04-07T22:58:12.725Z,8.97
2018-04-07T23:00:40.227Z,9.43
2018-04-07T23:03:07.711Z,9.03
2018-04-07T23:05:35.202Z,12.83
2018-04-07T23:08:02.705Z,11.10
2018-04-07T23:10:30.187Z,12.03
2018-04-07T23:12:57.674Z,9.43
2018-04-07T23:15:25.190Z,10.23
2018-04-07T23:17:52.674Z,11.10
2018-04-07T23:20:20.160Z,9.50
2018-04-07T23:22:47.662Z,9.53
2018-04-07T23:25:15.155Z,11.03
2018-04-07T23:27:42.643Z,10.57
2018-04-07T23:30:11.154Z,13.73
2018-04-07T23:32:38.651Z,17.60
2018-04-07T23:35:06.141Z,11.33
2018-04-07T23:37:33.654Z,10.73
2018-04-07T23:40:01.138Z,13.07
2018-04-07T23:42:28.630Z,12.37
2018-04-07T23:44:56.148Z,12.20
2018-04-07T23:47:23.630Z,12.83
2018-04-07T23:49:51.114Z,11.97
2018-04-07T23:52:18.626Z,11.13
2018-04-07T23:54:46.108Z,11.40
2018-04-07T23:57:13.618Z,11.57
2018-04-07T23:59:41.134Z,13.63
